This is the latest recevied weather packets stored in our database for station/object SQ9IWE-13. If no packets are shown the sender has not sent any weather packets the latest 10 day(s).
| Time | Temp. | Humidity | Pressure | Rain* | Wind** | Luminosity | Snow |
|---|---|---|---|---|---|---|---|
| 1777543201 | 16.11° C | 32% | 1029.5 hPa | - | - | - | - |
| 1777542001 | 15.56° C | 33% | 1029.6 hPa | - | - | - | - |
| 1777541401 | 15° C | 32% | 1029.7 hPa | - | - | - | - |
| 1777540801 | 16.11° C | 33% | 1029.8 hPa | - | - | - | - |
| 1777539601 | 15° C | 34% | 1029.8 hPa | - | - | - | - |
| 1777538401 | 15° C | 34% | 1030.2 hPa | - | - | - | - |
| 1777537201 | 16.11° C | 33% | 1030.2 hPa | - | - | - | - |
| 1777536601 | 14.44° C | 35% | 1030.4 hPa | - | - | - | - |
| 1777536001 | 16.67° C | 33% | 1030.3 hPa | - | - | - | - |
| 1777535401 | 14.44° C | 33% | 1030.3 hPa | - | - | - | - |
| 1777534801 | 14.44° C | 35% | 1030.4 hPa | - | - | - | - |
| 1777534201 | 12.78° C | 37% | 1030.3 hPa | - | - | - | - |
| 1777533601 | 11.67° C | 41% | 1030.2 hPa | - | - | - | - |
| 1777533001 | 10.56° C | 41% | 1030.3 hPa | - | - | - | - |
| 1777532401 | 11.11° C | 41% | 1030.5 hPa | - | - | - | - |
| 1777531800 | 11.11° C | 42% | 1030.6 hPa | - | - | - | - |
| 1777531200 | 11.11° C | 41% | 1030.6 hPa | - | - | - | - |
| 1777530600 | 11.67° C | 43% | 1030.6 hPa | - | - | - | - |
| 1777530000 | 11.11° C | 43% | 1030.6 hPa | - | - | - | - |
| 1777529400 | 10° C | 47% | 1030.6 hPa | - | - | - | - |
| 1777528801 | 11.11° C | 45% | 1030.5 hPa | - | - | - | - |
| 1777528201 | 8.89° C | 48% | 1030.5 hPa | - | - | - | - |
| 1777527601 | 9.44° C | 48% | 1030.5 hPa | - | - | - | - |
| 1777527001 | 10.56° C | 46% | 1030.5 hPa | - | - | - | - |
| 1777526401 | 9.44° C | 50% | 1030.5 hPa | - | - | - | - |
* Rain since midnight (hover to see other rain measurements)
** Current wind speed in m/s (hover to see current wind gust speed)